createdAt,value
2023-05-22T00:04:04.821Z,100850.79
2023-05-22T00:09:08.156Z,100849.63
2023-05-22T00:14:13.843Z,100847.45
2023-05-22T00:19:19.985Z,100844.41
2023-05-22T00:24:23.248Z,100840.05
2023-05-22T00:29:26.556Z,100836.54
2023-05-22T00:34:29.926Z,100834.49
2023-05-22T00:39:33.317Z,100830.59
2023-05-22T00:44:36.812Z,100833.23
2023-05-22T00:49:41.214Z,100836.20
2023-05-22T00:54:45.729Z,100836.20
2023-05-22T00:59:49.377Z,100830.60
2023-05-22T01:04:55.832Z,100835.44
2023-05-22T01:09:59.180Z,100836.19
2023-05-22T01:15:26.800Z,100840.67
2023-05-22T01:20:41.715Z,100839.05
2023-05-22T01:25:51.249Z,100838.80
2023-05-22T01:31:01.404Z,100837.98
2023-05-22T01:36:09.161Z,100841.45
2023-05-22T01:41:13.555Z,100837.75
2023-05-22T01:46:17.565Z,100835.75
2023-05-22T01:51:36.899Z,100837.16
2023-05-22T01:56:51.154Z,100842.36
2023-05-22T02:01:55.688Z,100840.05
2023-05-22T02:07:01.455Z,100842.00
2023-05-22T02:12:05.036Z,100834.74
2023-05-22T02:17:08.975Z,100840.46
2023-05-22T02:22:15.073Z,100841.84
2023-05-22T02:27:18.296Z,100842.70
2023-05-22T02:32:22.151Z,100838.66
2023-05-22T02:37:37.004Z,100833.67
2023-05-22T02:42:43.220Z,100830.33
2023-05-22T02:47:47.316Z,100830.07
2023-05-22T02:52:51.230Z,100826.48
2023-05-22T02:57:57.012Z,100825.55
2023-05-22T03:03:01.880Z,100820.83
2023-05-22T03:08:06.067Z,100819.39
2023-05-22T03:13:09.198Z,100815.35
2023-05-22T03:18:13.250Z,100809.80
2023-05-22T03:23:16.748Z,100809.88
2023-05-22T03:28:21.501Z,100813.27
2023-05-22T03:33:25.590Z,100811.77
2023-05-22T03:38:29.136Z,100805.71
2023-05-22T03:43:32.381Z,100805.70
2023-05-22T03:48:35.756Z,100807.95
2023-05-22T03:53:39.042Z,100810.23
2023-05-22T03:58:42.245Z,100808.27
2023-05-22T04:03:46.005Z,100810.89
2023-05-22T04:08:49.776Z,100806.02
2023-05-22T04:13:53.186Z,100808.33
2023-05-22T04:18:56.522Z,100808.13
2023-05-22T04:24:01.865Z,100802.98
2023-05-22T04:29:10.668Z,100801.14
2023-05-22T04:34:16.283Z,100792.39
2023-05-22T04:39:19.619Z,100789.72
2023-05-22T04:44:23.701Z,100790.08
2023-05-22T04:49:28.830Z,100789.23
2023-05-22T04:54:32.304Z,100792.09
2023-05-22T04:59:40.174Z,100789.69
2023-05-22T05:04:43.819Z,100791.94
2023-05-22T05:09:47.108Z,100791.84
2023-05-22T05:14:50.329Z,100797.94
2023-05-22T05:19:53.692Z,100797.30
2023-05-22T05:24:57.749Z,100799.52
2023-05-22T05:30:01.381Z,100804.30
2023-05-22T05:35:17.288Z,100801.98
2023-05-22T05:40:28.167Z,100801.23
2023-05-22T05:45:31.790Z,100801.04
2023-05-22T05:50:35.441Z,100803.38
2023-05-22T05:55:39.226Z,100805.39
2023-05-22T06:00:42.621Z,100796.34
2023-05-22T06:05:46.424Z,100795.20
2023-05-22T06:10:57.589Z,100800.73
2023-05-22T06:16:13.311Z,100793.63
2023-05-22T06:21:18.041Z,100790.88
2023-05-22T06:26:23.673Z,100788.98
2023-05-22T06:31:28.313Z,100782.44
2023-05-22T06:36:34.996Z,100779.63
2023-05-22T06:41:38.896Z,100784.36
2023-05-22T06:46:43.581Z,100789.24
2023-05-22T06:51:53.352Z,100788.73
2023-05-22T06:56:57.711Z,100789.66
2023-05-22T07:02:03.592Z,100780.21
2023-05-22T07:07:19.324Z,100778.23
2023-05-22T07:12:26.139Z,100776.66
2023-05-22T07:17:29.983Z,100779.59
2023-05-22T07:22:33.934Z,100770.83
2023-05-22T07:27:37.988Z,100770.95
2023-05-22T07:32:41.581Z,100774.76
2023-05-22T07:37:45.296Z,100771.88
2023-05-22T07:42:48.486Z,100767.92
2023-05-22T07:47:54.227Z,100768.65
2023-05-22T07:53:00.037Z,100764.77
2023-05-22T07:58:04.507Z,100760.30
2023-05-22T08:03:12.504Z,100759.68
2023-05-22T08:08:16.094Z,100760.52
2023-05-22T08:13:19.634Z,100756.04
2023-05-22T08:18:22.899Z,100753.52
2023-05-22T08:23:26.256Z,100755.33
2023-05-22T08:28:29.414Z,100747.40
2023-05-22T08:33:32.805Z,100743.83
2023-05-22T08:38:35.975Z,100746.61
2023-05-22T08:43:41.124Z,100745.89
2023-05-22T08:48:45.146Z,100744.88
2023-05-22T08:53:52.409Z,100737.69
2023-05-22T08:58:56.152Z,100735.37
2023-05-22T09:04:03.761Z,100735.28
2023-05-22T09:09:07.022Z,100731.55
2023-05-22T09:14:11.829Z,100726.94
2023-05-22T09:19:16.062Z,100724.36
2023-05-22T09:24:19.345Z,100713.71
2023-05-22T09:29:22.737Z,100710.98
2023-05-22T09:34:30.280Z,100705.52
2023-05-22T09:39:43.098Z,100705.16
2023-05-22T09:44:50.183Z,100699.44
2023-05-22T09:49:59.081Z,100699.48
2023-05-22T09:55:07.284Z,100698.63
2023-05-22T10:00:18.680Z,100694.79
2023-05-22T10:05:29.499Z,100692.13
2023-05-22T10:10:34.187Z,100690.98
2023-05-22T10:15:38.651Z,100687.78
2023-05-22T10:20:42.452Z,100693.42
2023-05-22T10:25:46.266Z,100685.23
2023-05-22T10:31:14.709Z,100684.77
2023-05-22T10:37:13.104Z,100683.30
2023-05-22T10:42:20.703Z,100681.23
2023-05-22T10:47:23.992Z,100676.69
2023-05-22T10:52:27.322Z,100674.37
2023-05-22T10:57:34.704Z,100666.14
2023-05-22T11:02:43.574Z,100668.34
2023-05-22T11:07:49.282Z,100664.99
2023-05-22T11:13:12.102Z,100656.34
2023-05-22T11:18:16.935Z,100659.48
2023-05-22T11:23:20.560Z,100654.60
2023-05-22T11:28:24.795Z,100642.86
2023-05-22T11:33:28.256Z,100634.96
2023-05-22T11:38:32.413Z,100628.84
2023-05-22T11:43:37.143Z,100623.98
2023-05-22T11:48:43.942Z,100628.00
2023-05-22T11:53:48.306Z,100624.38
2023-05-22T11:58:52.079Z,100623.23
2023-05-22T12:03:55.379Z,100625.79
2023-05-22T12:08:59.442Z,100618.27
2023-05-22T12:14:06.013Z,100610.39
2023-05-22T12:19:11.030Z,100603.72
2023-05-22T12:24:14.287Z,100601.52
2023-05-22T12:29:17.992Z,100599.85
2023-05-22T12:34:21.385Z,100591.26
2023-05-22T12:39:24.716Z,100587.85
2023-05-22T12:44:28.004Z,100584.00
2023-05-22T12:49:31.276Z,100585.59
2023-05-22T12:54:34.423Z,100580.53
2023-05-22T12:59:37.738Z,100579.69
2023-05-22T13:04:40.962Z,100573.09
2023-05-22T13:09:44.712Z,100569.44
2023-05-22T13:14:47.929Z,100571.02
2023-05-22T13:19:51.792Z,100565.83
2023-05-22T13:24:55.002Z,100564.40
2023-05-22T13:29:58.229Z,100565.67
2023-05-22T13:35:01.674Z,100564.10
2023-05-22T13:40:05.655Z,100564.46
2023-05-22T13:45:09.846Z,100559.19
2023-05-22T13:50:13.278Z,100551.48
2023-05-22T13:55:16.791Z,100549.31
2023-05-22T14:00:20.688Z,100546.36
2023-05-22T14:05:24.711Z,100542.98
2023-05-22T14:10:28.015Z,100534.76
2023-05-22T14:15:31.410Z,100531.64
2023-05-22T14:20:34.850Z,100531.58
2023-05-22T14:25:38.229Z,100532.61
2023-05-22T14:30:41.751Z,100530.88
2023-05-22T14:35:45.075Z,100528.91
2023-05-22T14:40:48.441Z,100519.11
2023-05-22T14:45:51.807Z,100514.28
2023-05-22T14:50:55.407Z,100510.95
2023-05-22T14:55:58.915Z,100503.37
2023-05-22T15:01:02.237Z,100505.72
2023-05-22T15:06:06.200Z,100500.61
2023-05-22T15:11:09.450Z,100498.77
2023-05-22T15:16:12.602Z,100495.33
2023-05-22T15:21:16.070Z,100491.75
2023-05-22T15:26:19.318Z,100493.54
2023-05-22T15:31:22.696Z,100487.91
2023-05-22T15:36:28.316Z,100484.40
2023-05-22T15:41:31.602Z,100484.89
2023-05-22T15:46:34.934Z,100477.63
2023-05-22T15:51:39.086Z,100476.34
2023-05-22T15:56:42.203Z,100468.02
2023-05-22T16:01:46.067Z,100464.45
2023-05-22T16:06:49.406Z,100456.54
2023-05-22T16:11:52.586Z,100457.16
2023-05-22T16:16:56.322Z,100451.09
2023-05-22T16:22:00.247Z,100453.66
2023-05-22T16:27:03.626Z,100446.28
2023-05-22T16:32:07.051Z,100441.27
2023-05-22T16:37:10.463Z,100441.41
2023-05-22T16:42:16.838Z,100444.17
2023-05-22T16:47:21.902Z,100445.45
2023-05-22T16:52:26.470Z,100452.27
2023-05-22T16:57:29.775Z,100452.21
2023-05-22T17:02:33.624Z,100453.15
2023-05-22T17:07:37.886Z,100457.06
2023-05-22T17:12:41.351Z,100460.59
2023-05-22T17:17:44.612Z,100459.42
2023-05-22T17:22:47.808Z,100459.73
2023-05-22T17:27:50.980Z,100461.27
2023-05-22T17:32:57.071Z,100459.69
2023-05-22T17:38:00.506Z,100461.20
2023-05-22T17:43:03.832Z,100457.42
2023-05-22T17:48:07.979Z,100457.77
2023-05-22T17:53:13.592Z,100450.84
2023-05-22T17:58:17.315Z,100449.25
2023-05-22T18:03:20.759Z,100446.64
2023-05-22T18:08:24.321Z,100444.48
2023-05-22T18:13:27.420Z,100440.42
2023-05-22T18:18:30.698Z,100442.20
2023-05-22T18:23:34.006Z,100438.55
2023-05-22T18:28:37.450Z,100441.70
2023-05-22T18:33:45.286Z,100439.83
2023-05-22T18:38:48.428Z,100439.44
2023-05-22T18:43:51.626Z,100445.95
2023-05-22T18:48:55.600Z,100445.44
2023-05-22T18:53:58.896Z,100448.11
2023-05-22T18:59:02.167Z,100449.86
2023-05-22T19:04:07.934Z,100447.42
2023-05-22T19:09:12.189Z,100454.91
2023-05-22T19:14:15.828Z,100451.73
2023-05-22T19:19:22.519Z,100454.22
2023-05-22T19:24:28.557Z,100456.77
2023-05-22T19:29:33.229Z,100456.19
2023-05-22T19:34:38.495Z,100460.98
2023-05-22T19:39:42.783Z,100457.30
2023-05-22T19:44:46.097Z,100454.22
2023-05-22T19:49:50.985Z,100451.76
2023-05-22T19:54:56.002Z,100451.80
2023-05-22T19:59:59.385Z,100453.20
2023-05-22T20:05:02.919Z,100454.33
2023-05-22T20:10:09.631Z,100451.45
2023-05-22T20:15:15.218Z,100451.17
2023-05-22T20:20:19.804Z,100451.10
2023-05-22T20:25:23.710Z,100449.32
2023-05-22T20:30:26.971Z,100444.52
2023-05-22T20:35:31.165Z,100442.35
2023-05-22T20:40:34.659Z,100436.39
2023-05-22T20:45:38.251Z,100438.98
2023-05-22T20:50:42.533Z,100434.52
2023-05-22T20:55:46.153Z,100433.93
2023-05-22T21:00:50.305Z,100431.46
2023-05-22T21:05:53.874Z,100433.98
2023-05-22T21:10:57.124Z,100437.86
2023-05-22T21:16:00.512Z,100434.64
2023-05-22T21:21:04.079Z,100431.65
2023-05-22T21:26:07.455Z,100427.25
2023-05-22T21:31:11.054Z,100427.89
2023-05-22T21:36:14.441Z,100424.41
2023-05-22T21:41:17.854Z,100427.12
2023-05-22T21:46:24.825Z,100434.13
2023-05-22T21:51:28.464Z,100435.13
2023-05-22T21:56:34.147Z,100429.86
2023-05-22T22:01:37.465Z,100431.79
2023-05-22T22:06:41.004Z,100431.21
2023-05-22T22:11:44.531Z,100431.25
2023-05-22T22:16:48.179Z,100432.33
2023-05-22T22:21:51.585Z,100427.79
2023-05-22T22:26:55.254Z,100426.45
2023-05-22T22:31:58.556Z,100419.94
2023-05-22T22:37:02.090Z,100422.00
2023-05-22T22:42:05.579Z,100421.41
2023-05-22T22:47:09.431Z,100424.80
2023-05-22T22:52:13.054Z,100422.33
2023-05-22T22:57:16.639Z,100419.91
2023-05-22T23:02:19.992Z,100417.14
2023-05-22T23:07:24.347Z,100411.25
2023-05-22T23:12:27.623Z,100410.52
2023-05-22T23:17:31.375Z,100402.16
2023-05-22T23:22:35.828Z,100393.85
2023-05-22T23:27:39.784Z,100389.73
2023-05-22T23:32:43.067Z,100388.52
2023-05-22T23:37:46.293Z,100386.36
2023-05-22T23:42:49.630Z,100377.09
2023-05-22T23:47:53.014Z,100379.07
2023-05-22T23:52:56.276Z,100375.25
2023-05-22T23:57:59.646Z,100372.23
